sensor_id;sensor_type;location;lat;lon;timestamp;P1;durP1;ratioP1;P2;durP2;ratioP2
52858;SDS011;38721;53.098;6.596;2022-11-20T00:00:37;24.55;;;14.18;;
52858;SDS011;38721;53.098;6.596;2022-11-20T00:03:03;21.55;;;13.18;;
52858;SDS011;38721;53.098;6.596;2022-11-20T00:05:31;21.42;;;13.75;;
52858;SDS011;38721;53.098;6.596;2022-11-20T00:07:57;22.13;;;13.55;;
52858;SDS011;38721;53.098;6.596;2022-11-20T00:10:23;20.88;;;12.60;;
52858;SDS011;38721;53.098;6.596;2022-11-20T00:12:49;21.25;;;12.85;;
52858;SDS011;38721;53.098;6.596;2022-11-20T00:15:14;21.75;;;12.82;;
52858;SDS011;38721;53.098;6.596;2022-11-20T00:17:40;19.92;;;12.82;;
52858;SDS011;38721;53.098;6.596;2022-11-20T00:20:06;21.50;;;12.85;;
52858;SDS011;38721;53.098;6.596;2022-11-20T00:22:32;21.80;;;13.70;;
52858;SDS011;38721;53.098;6.596;2022-11-20T00:24:57;21.65;;;13.10;;
52858;SDS011;38721;53.098;6.596;2022-11-20T00:27:23;21.52;;;13.45;;
52858;SDS011;38721;53.098;6.596;2022-11-20T00:29:48;20.13;;;12.70;;
52858;SDS011;38721;53.098;6.596;2022-11-20T00:32:14;20.83;;;12.35;;
52858;SDS011;38721;53.098;6.596;2022-11-20T00:34:40;24.58;;;13.05;;
52858;SDS011;38721;53.098;6.596;2022-11-20T00:37:08;23.77;;;13.48;;
52858;SDS011;38721;53.098;6.596;2022-11-20T00:39:34;20.58;;;12.57;;
52858;SDS011;38721;53.098;6.596;2022-11-20T00:42:00;20.20;;;12.52;;
52858;SDS011;38721;53.098;6.596;2022-11-20T00:44:25;19.60;;;12.77;;
52858;SDS011;38721;53.098;6.596;2022-11-20T00:46:53;23.23;;;13.18;;
52858;SDS011;38721;53.098;6.596;2022-11-20T00:49:19;22.52;;;12.98;;
52858;SDS011;38721;53.098;6.596;2022-11-20T00:51:45;19.40;;;13.07;;
52858;SDS011;38721;53.098;6.596;2022-11-20T00:54:10;20.55;;;12.10;;
52858;SDS011;38721;53.098;6.596;2022-11-20T00:56:36;20.20;;;12.73;;
52858;SDS011;38721;53.098;6.596;2022-11-20T00:59:02;22.08;;;13.13;;
52858;SDS011;38721;53.098;6.596;2022-11-20T01:01:27;22.95;;;13.10;;
52858;SDS011;38721;53.098;6.596;2022-11-20T01:03:57;21.90;;;13.27;;
52858;SDS011;38721;53.098;6.596;2022-11-20T01:06:25;22.38;;;13.07;;
52858;SDS011;38721;53.098;6.596;2022-11-20T01:08:53;21.20;;;12.43;;
52858;SDS011;38721;53.098;6.596;2022-11-20T01:11:24;20.65;;;12.38;;
52858;SDS011;38721;53.098;6.596;2022-11-20T01:13:52;19.65;;;12.52;;
52858;SDS011;38721;53.098;6.596;2022-11-20T01:16:24;21.88;;;12.32;;
52858;SDS011;38721;53.098;6.596;2022-11-20T01:18:52;19.40;;;12.30;;
52858;SDS011;38721;53.098;6.596;2022-11-20T01:21:25;18.92;;;12.07;;
52858;SDS011;38721;53.098;6.596;2022-11-20T01:23:53;20.45;;;12.45;;
52858;SDS011;38721;53.098;6.596;2022-11-20T01:26:20;17.58;;;12.15;;
52858;SDS011;38721;53.098;6.596;2022-11-20T01:28:49;23.70;;;12.93;;
52858;SDS011;38721;53.098;6.596;2022-11-20T01:31:16;18.90;;;12.50;;
52858;SDS011;38721;53.098;6.596;2022-11-20T01:33:42;18.38;;;11.88;;
52858;SDS011;38721;53.098;6.596;2022-11-20T01:36:09;18.65;;;12.18;;
52858;SDS011;38721;53.098;6.596;2022-11-20T01:38:35;19.73;;;12.82;;
52858;SDS011;38721;53.098;6.596;2022-11-20T01:41:02;19.92;;;12.65;;
52858;SDS011;38721;53.098;6.596;2022-11-20T01:43:31;18.85;;;11.85;;
52858;SDS011;38721;53.098;6.596;2022-11-20T01:46:05;20.60;;;12.63;;
52858;SDS011;38721;53.098;6.596;2022-11-20T01:48:54;20.05;;;12.07;;
52858;SDS011;38721;53.098;6.596;2022-11-20T01:54:17;19.52;;;12.05;;
52858;SDS011;38721;53.098;6.596;2022-11-20T01:56:48;17.90;;;11.60;;
52858;SDS011;38721;53.098;6.596;2022-11-20T01:59:19;21.08;;;12.15;;
52858;SDS011;38721;53.098;6.596;2022-11-20T02:01:47;20.77;;;12.05;;
52858;SDS011;38721;53.098;6.596;2022-11-20T02:04:13;22.40;;;12.48;;
52858;SDS011;38721;53.098;6.596;2022-11-20T02:06:44;18.50;;;11.65;;
52858;SDS011;38721;53.098;6.596;2022-11-20T02:09:13;20.15;;;12.10;;
52858;SDS011;38721;53.098;6.596;2022-11-20T02:11:40;21.67;;;12.60;;
52858;SDS011;38721;53.098;6.596;2022-11-20T02:14:05;18.27;;;11.93;;
52858;SDS011;38721;53.098;6.596;2022-11-20T02:16:39;20.08;;;12.23;;
52858;SDS011;38721;53.098;6.596;2022-11-20T02:19:12;22.67;;;13.13;;
52858;SDS011;38721;53.098;6.596;2022-11-20T02:24:36;21.77;;;13.23;;
52858;SDS011;38721;53.098;6.596;2022-11-20T02:27:04;18.55;;;12.50;;
52858;SDS011;38721;53.098;6.596;2022-11-20T02:32:21;20.50;;;12.38;;
52858;SDS011;38721;53.098;6.596;2022-11-20T02:34:55;21.55;;;12.82;;
52858;SDS011;38721;53.098;6.596;2022-11-20T02:37:21;20.83;;;12.30;;
52858;SDS011;38721;53.098;6.596;2022-11-20T02:39:49;19.92;;;12.27;;
52858;SDS011;38721;53.098;6.596;2022-11-20T02:42:16;19.63;;;12.20;;
52858;SDS011;38721;53.098;6.596;2022-11-20T02:44:42;21.20;;;13.07;;
52858;SDS011;38721;53.098;6.596;2022-11-20T02:47:07;19.63;;;12.27;;
52858;SDS011;38721;53.098;6.596;2022-11-20T02:49:33;19.25;;;12.10;;
52858;SDS011;38721;53.098;6.596;2022-11-20T02:51:59;20.23;;;12.15;;
52858;SDS011;38721;53.098;6.596;2022-11-20T02:54:28;21.42;;;12.35;;
52858;SDS011;38721;53.098;6.596;2022-11-20T02:56:54;19.83;;;12.20;;
52858;SDS011;38721;53.098;6.596;2022-11-20T02:59:19;19.00;;;11.95;;
52858;SDS011;38721;53.098;6.596;2022-11-20T03:01:45;19.35;;;11.65;;
52858;SDS011;38721;53.098;6.596;2022-11-20T03:04:13;21.50;;;12.07;;
52858;SDS011;38721;53.098;6.596;2022-11-20T03:06:39;19.52;;;12.32;;
52858;SDS011;38721;53.098;6.596;2022-11-20T03:09:07;19.70;;;12.35;;
52858;SDS011;38721;53.098;6.596;2022-11-20T03:11:33;19.33;;;12.60;;
52858;SDS011;38721;53.098;6.596;2022-11-20T03:14:01;21.15;;;12.02;;
52858;SDS011;38721;53.098;6.596;2022-11-20T03:16:28;18.85;;;12.52;;
52858;SDS011;38721;53.098;6.596;2022-11-20T03:18:55;20.75;;;13.23;;
52858;SDS011;38721;53.098;6.596;2022-11-20T03:21:21;20.48;;;12.52;;
52858;SDS011;38721;53.098;6.596;2022-11-20T03:23:47;20.00;;;12.15;;
52858;SDS011;38721;53.098;6.596;2022-11-20T03:26:14;21.58;;;12.45;;
52858;SDS011;38721;53.098;6.596;2022-11-20T03:28:42;18.95;;;11.73;;
52858;SDS011;38721;53.098;6.596;2022-11-20T03:31:12;18.15;;;12.20;;
52858;SDS011;38721;53.098;6.596;2022-11-20T03:33:40;18.20;;;11.45;;
52858;SDS011;38721;53.098;6.596;2022-11-20T03:36:07;22.63;;;12.50;;
52858;SDS011;38721;53.098;6.596;2022-11-20T03:38:35;18.08;;;11.95;;
52858;SDS011;38721;53.098;6.596;2022-11-20T03:41:03;19.35;;;11.93;;
52858;SDS011;38721;53.098;6.596;2022-11-20T03:43:31;18.65;;;12.05;;
52858;SDS011;38721;53.098;6.596;2022-11-20T03:45:57;17.27;;;11.27;;
52858;SDS011;38721;53.098;6.596;2022-11-20T03:48:22;18.75;;;12.40;;
52858;SDS011;38721;53.098;6.596;2022-11-20T03:50:48;18.17;;;11.77;;
52858;SDS011;38721;53.098;6.596;2022-11-20T03:53:14;18.10;;;11.77;;
52858;SDS011;38721;53.098;6.596;2022-11-20T03:55:40;18.67;;;11.85;;
52858;SDS011;38721;53.098;6.596;2022-11-20T03:58:06;21.20;;;12.07;;
52858;SDS011;38721;53.098;6.596;2022-11-20T04:00:32;17.23;;;11.00;;
52858;SDS011;38721;53.098;6.596;2022-11-20T04:03:01;18.20;;;11.77;;
52858;SDS011;38721;53.098;6.596;2022-11-20T04:05:28;18.60;;;11.75;;
52858;SDS011;38721;53.098;6.596;2022-11-20T04:07:54;18.27;;;12.82;;
52858;SDS011;38721;53.098;6.596;2022-11-20T04:10:19;19.60;;;12.15;;
52858;SDS011;38721;53.098;6.596;2022-11-20T04:12:45;18.85;;;11.15;;
52858;SDS011;38721;53.098;6.596;2022-11-20T04:15:11;18.98;;;11.95;;
52858;SDS011;38721;53.098;6.596;2022-11-20T04:17:39;17.95;;;11.95;;
52858;SDS011;38721;53.098;6.596;2022-11-20T04:20:08;19.13;;;12.00;;
52858;SDS011;38721;53.098;6.596;2022-11-20T04:22:34;17.85;;;12.05;;
52858;SDS011;38721;53.098;6.596;2022-11-20T04:24:59;17.55;;;11.65;;
52858;SDS011;38721;53.098;6.596;2022-11-20T04:27:25;18.98;;;11.90;;
52858;SDS011;38721;53.098;6.596;2022-11-20T04:29:50;18.98;;;12.07;;
52858;SDS011;38721;53.098;6.596;2022-11-20T04:32:16;18.52;;;11.82;;
52858;SDS011;38721;53.098;6.596;2022-11-20T04:34:44;19.73;;;11.60;;
52858;SDS011;38721;53.098;6.596;2022-11-20T04:37:10;17.60;;;11.02;;
52858;SDS011;38721;53.098;6.596;2022-11-20T04:39:36;19.77;;;12.55;;
52858;SDS011;38721;53.098;6.596;2022-11-20T04:42:01;20.35;;;11.50;;
52858;SDS011;38721;53.098;6.596;2022-11-20T04:44:46;17.05;;;11.30;;
52858;SDS011;38721;53.098;6.596;2022-11-20T04:47:11;18.20;;;11.40;;
52858;SDS011;38721;53.098;6.596;2022-11-20T04:49:39;15.35;;;10.48;;
52858;SDS011;38721;53.098;6.596;2022-11-20T04:52:05;17.02;;;10.95;;
52858;SDS011;38721;53.098;6.596;2022-11-20T04:54:31;18.67;;;11.43;;
52858;SDS011;38721;53.098;6.596;2022-11-20T04:56:56;15.50;;;10.57;;
52858;SDS011;38721;53.098;6.596;2022-11-20T04:59:22;17.48;;;11.27;;
52858;SDS011;38721;53.098;6.596;2022-11-20T05:01:48;15.80;;;10.15;;
52858;SDS011;38721;53.098;6.596;2022-11-20T05:04:13;17.33;;;10.73;;
52858;SDS011;38721;53.098;6.596;2022-11-20T05:06:39;16.80;;;10.50;;
52858;SDS011;38721;53.098;6.596;2022-11-20T05:09:04;14.73;;;9.70;;
52858;SDS011;38721;53.098;6.596;2022-11-20T05:11:33;17.88;;;11.23;;
52858;SDS011;38721;53.098;6.596;2022-11-20T05:13:59;15.93;;;10.30;;
52858;SDS011;38721;53.098;6.596;2022-11-20T05:16:25;17.23;;;11.40;;
52858;SDS011;38721;53.098;6.596;2022-11-20T05:18:51;16.65;;;11.23;;
52858;SDS011;38721;53.098;6.596;2022-11-20T05:21:18;16.98;;;10.82;;
52858;SDS011;38721;53.098;6.596;2022-11-20T05:23:44;18.95;;;11.60;;
52858;SDS011;38721;53.098;6.596;2022-11-20T05:26:14;16.38;;;10.88;;
52858;SDS011;38721;53.098;6.596;2022-11-20T05:28:43;16.75;;;10.88;;
52858;SDS011;38721;53.098;6.596;2022-11-20T05:31:09;16.33;;;10.52;;
52858;SDS011;38721;53.098;6.596;2022-11-20T05:33:40;15.57;;;9.95;;
52858;SDS011;38721;53.098;6.596;2022-11-20T05:36:07;18.00;;;10.88;;
52858;SDS011;38721;53.098;6.596;2022-11-20T05:38:33;16.60;;;10.73;;
52858;SDS011;38721;53.098;6.596;2022-11-20T05:41:02;17.00;;;10.88;;
52858;SDS011;38721;53.098;6.596;2022-11-20T05:43:33;18.10;;;11.90;;
52858;SDS011;38721;53.098;6.596;2022-11-20T05:46:00;16.55;;;10.50;;
52858;SDS011;38721;53.098;6.596;2022-11-20T05:48:27;18.58;;;11.40;;
52858;SDS011;38721;53.098;6.596;2022-11-20T05:50:53;18.02;;;11.73;;
52858;SDS011;38721;53.098;6.596;2022-11-20T05:53:18;16.55;;;11.13;;
52858;SDS011;38721;53.098;6.596;2022-11-20T05:55:44;16.48;;;11.00;;
52858;SDS011;38721;53.098;6.596;2022-11-20T05:58:20;16.30;;;10.88;;
52858;SDS011;38721;53.098;6.596;2022-11-20T06:00:46;14.63;;;10.18;;
52858;SDS011;38721;53.098;6.596;2022-11-20T06:03:11;18.00;;;11.63;;
52858;SDS011;38721;53.098;6.596;2022-11-20T06:05:37;16.65;;;10.15;;
52858;SDS011;38721;53.098;6.596;2022-11-20T06:08:03;14.80;;;9.90;;
52858;SDS011;38721;53.098;6.596;2022-11-20T06:10:28;17.35;;;10.77;;
52858;SDS011;38721;53.098;6.596;2022-11-20T06:12:56;15.57;;;10.20;;
52858;SDS011;38721;53.098;6.596;2022-11-20T06:15:22;15.40;;;9.90;;
52858;SDS011;38721;53.098;6.596;2022-11-20T06:17:51;15.05;;;10.60;;
52858;SDS011;38721;53.098;6.596;2022-11-20T06:20:18;15.30;;;10.10;;
52858;SDS011;38721;53.098;6.596;2022-11-20T06:22:43;14.60;;;10.05;;
52858;SDS011;38721;53.098;6.596;2022-11-20T06:25:09;16.42;;;10.52;;
52858;SDS011;38721;53.098;6.596;2022-11-20T06:27:34;14.82;;;9.77;;
52858;SDS011;38721;53.098;6.596;2022-11-20T06:30:00;14.38;;;10.15;;
52858;SDS011;38721;53.098;6.596;2022-11-20T06:32:26;14.63;;;9.82;;
52858;SDS011;38721;53.098;6.596;2022-11-20T06:34:51;15.63;;;10.05;;
52858;SDS011;38721;53.098;6.596;2022-11-20T06:37:17;15.07;;;10.35;;
52858;SDS011;38721;53.098;6.596;2022-11-20T06:39:42;14.95;;;9.90;;
52858;SDS011;38721;53.098;6.596;2022-11-20T06:42:11;14.73;;;9.82;;
52858;SDS011;38721;53.098;6.596;2022-11-20T06:44:36;14.65;;;8.80;;
52858;SDS011;38721;53.098;6.596;2022-11-20T06:47:02;14.27;;;9.63;;
52858;SDS011;38721;53.098;6.596;2022-11-20T06:49:28;15.40;;;10.15;;
52858;SDS011;38721;53.098;6.596;2022-11-20T06:51:53;15.20;;;9.55;;
52858;SDS011;38721;53.098;6.596;2022-11-20T06:54:19;16.15;;;10.00;;
52858;SDS011;38721;53.098;6.596;2022-11-20T06:56:48;15.00;;;9.70;;
52858;SDS011;38721;53.098;6.596;2022-11-20T06:59:16;16.00;;;9.85;;
52858;SDS011;38721;53.098;6.596;2022-11-20T07:01:42;16.42;;;9.60;;
52858;SDS011;38721;53.098;6.596;2022-11-20T07:04:07;15.52;;;10.10;;
52858;SDS011;38721;53.098;6.596;2022-11-20T07:06:34;15.30;;;10.43;;
52858;SDS011;38721;53.098;6.596;2022-11-20T07:09:01;15.57;;;10.02;;
52858;SDS011;38721;53.098;6.596;2022-11-20T07:11:27;15.13;;;9.80;;
52858;SDS011;38721;53.098;6.596;2022-11-20T07:13:52;16.60;;;10.88;;
52858;SDS011;38721;53.098;6.596;2022-11-20T07:16:21;15.13;;;10.15;;
52858;SDS011;38721;53.098;6.596;2022-11-20T07:18:47;16.70;;;10.45;;
52858;SDS011;38721;53.098;6.596;2022-11-20T07:21:12;16.20;;;10.48;;
52858;SDS011;38721;53.098;6.596;2022-11-20T07:23:38;15.15;;;10.15;;
52858;SDS011;38721;53.098;6.596;2022-11-20T07:26:08;15.90;;;10.13;;
52858;SDS011;38721;53.098;6.596;2022-11-20T07:28:37;16.88;;;10.02;;
52858;SDS011;38721;53.098;6.596;2022-11-20T07:31:03;15.27;;;10.30;;
52858;SDS011;38721;53.098;6.596;2022-11-20T07:33:29;16.45;;;10.20;;
52858;SDS011;38721;53.098;6.596;2022-11-20T07:35:55;14.70;;;9.20;;
52858;SDS011;38721;53.098;6.596;2022-11-20T07:38:23;14.48;;;9.90;;
52858;SDS011;38721;53.098;6.596;2022-11-20T07:40:48;13.95;;;9.27;;
52858;SDS011;38721;53.098;6.596;2022-11-20T07:43:19;14.73;;;9.07;;
52858;SDS011;38721;53.098;6.596;2022-11-20T07:45:48;13.95;;;9.77;;
52858;SDS011;38721;53.098;6.596;2022-11-20T07:48:14;14.55;;;9.98;;
52858;SDS011;38721;53.098;6.596;2022-11-20T07:50:39;13.48;;;9.20;;
52858;SDS011;38721;53.098;6.596;2022-11-20T07:53:08;16.92;;;10.40;;
52858;SDS011;38721;53.098;6.596;2022-11-20T07:55:34;15.02;;;9.20;;
52858;SDS011;38721;53.098;6.596;2022-11-20T07:57:59;14.63;;;9.40;;
52858;SDS011;38721;53.098;6.596;2022-11-20T08:00:25;14.75;;;9.48;;
52858;SDS011;38721;53.098;6.596;2022-11-20T08:02:51;18.42;;;11.05;;
52858;SDS011;38721;53.098;6.596;2022-11-20T08:05:17;16.60;;;10.10;;
52858;SDS011;38721;53.098;6.596;2022-11-20T08:07:43;16.08;;;9.68;;
52858;SDS011;38721;53.098;6.596;2022-11-20T08:10:12;14.93;;;9.70;;
52858;SDS011;38721;53.098;6.596;2022-11-20T08:12:46;13.80;;;9.25;;
52858;SDS011;38721;53.098;6.596;2022-11-20T08:15:35;13.98;;;8.93;;
52858;SDS011;38721;53.098;6.596;2022-11-20T08:18:05;13.52;;;9.23;;
52858;SDS011;38721;53.098;6.596;2022-11-20T08:20:40;13.43;;;9.35;;
52858;SDS011;38721;53.098;6.596;2022-11-20T08:23:07;13.87;;;8.90;;
52858;SDS011;38721;53.098;6.596;2022-11-20T08:25:34;12.82;;;9.15;;
52858;SDS011;38721;53.098;6.596;2022-11-20T08:28:03;13.18;;;9.10;;
52858;SDS011;38721;53.098;6.596;2022-11-20T08:30:30;13.60;;;9.10;;
52858;SDS011;38721;53.098;6.596;2022-11-20T08:33:00;16.20;;;9.35;;
52858;SDS011;38721;53.098;6.596;2022-11-20T08:35:34;13.88;;;9.57;;
52858;SDS011;38721;53.098;6.596;2022-11-20T08:38:01;13.13;;;8.60;;
52858;SDS011;38721;53.098;6.596;2022-11-20T08:40:27;15.13;;;8.85;;
52858;SDS011;38721;53.098;6.596;2022-11-20T08:42:53;12.98;;;8.30;;
52858;SDS011;38721;53.098;6.596;2022-11-20T08:45:19;13.02;;;8.02;;
52858;SDS011;38721;53.098;6.596;2022-11-20T08:47:45;11.18;;;7.78;;
52858;SDS011;38721;53.098;6.596;2022-11-20T08:50:12;13.07;;;8.35;;
52858;SDS011;38721;53.098;6.596;2022-11-20T08:52:39;12.48;;;8.35;;
52858;SDS011;38721;53.098;6.596;2022-11-20T08:55:05;10.77;;;7.57;;
52858;SDS011;38721;53.098;6.596;2022-11-20T08:57:34;13.63;;;8.10;;
52858;SDS011;38721;53.098;6.596;2022-11-20T09:00:04;12.60;;;7.68;;
52858;SDS011;38721;53.098;6.596;2022-11-20T09:02:31;13.05;;;8.23;;
52858;SDS011;38721;53.098;6.596;2022-11-20T09:04:57;11.93;;;8.55;;
52858;SDS011;38721;53.098;6.596;2022-11-20T09:07:23;12.73;;;8.00;;
52858;SDS011;38721;53.098;6.596;2022-11-20T09:09:49;11.13;;;7.82;;
52858;SDS011;38721;53.098;6.596;2022-11-20T09:12:14;11.10;;;8.05;;
52858;SDS011;38721;53.098;6.596;2022-11-20T09:14:40;15.55;;;8.98;;
52858;SDS011;38721;53.098;6.596;2022-11-20T09:17:09;12.02;;;8.25;;
52858;SDS011;38721;53.098;6.596;2022-11-20T09:19:38;10.88;;;7.70;;
52858;SDS011;38721;53.098;6.596;2022-11-20T09:22:04;14.25;;;9.50;;
52858;SDS011;38721;53.098;6.596;2022-11-20T09:24:30;12.75;;;8.82;;
52858;SDS011;38721;53.098;6.596;2022-11-20T09:26:58;13.55;;;8.90;;
52858;SDS011;38721;53.098;6.596;2022-11-20T09:29:26;13.00;;;8.63;;
52858;SDS011;38721;53.098;6.596;2022-11-20T09:31:52;14.00;;;8.73;;
52858;SDS011;38721;53.098;6.596;2022-11-20T09:34:18;14.75;;;8.75;;
52858;SDS011;38721;53.098;6.596;2022-11-20T09:36:43;12.88;;;9.20;;
52858;SDS011;38721;53.098;6.596;2022-11-20T09:39:10;13.15;;;9.23;;
52858;SDS011;38721;53.098;6.596;2022-11-20T09:47:32;12.80;;;8.65;;
52858;SDS011;38721;53.098;6.596;2022-11-20T09:50:38;12.68;;;8.55;;
52858;SDS011;38721;53.098;6.596;2022-11-20T09:56:03;13.30;;;9.07;;
52858;SDS011;38721;53.098;6.596;2022-11-20T10:01:14;11.57;;;7.82;;
52858;SDS011;38721;53.098;6.596;2022-11-20T10:04:01;11.57;;;7.57;;
52858;SDS011;38721;53.098;6.596;2022-11-20T10:09:05;14.25;;;8.40;;
52858;SDS011;38721;53.098;6.596;2022-11-20T10:16:57;10.82;;;8.02;;
52858;SDS011;38721;53.098;6.596;2022-11-20T10:19:34;11.75;;;8.75;;
52858;SDS011;38721;53.098;6.596;2022-11-20T10:30:08;11.15;;;7.72;;
52858;SDS011;38721;53.098;6.596;2022-11-20T10:32:43;12.10;;;8.05;;
52858;SDS011;38721;53.098;6.596;2022-11-20T10:37:44;11.50;;;7.95;;
52858;SDS011;38721;53.098;6.596;2022-11-20T10:42:54;11.90;;;7.97;;
52858;SDS011;38721;53.098;6.596;2022-11-20T10:47:51;11.73;;;7.25;;
52858;SDS011;38721;53.098;6.596;2022-11-20T10:50:21;10.77;;;7.88;;
52858;SDS011;38721;53.098;6.596;2022-11-20T10:56:05;12.02;;;7.88;;
52858;SDS011;38721;53.098;6.596;2022-11-20T11:01:39;11.13;;;7.72;;
52858;SDS011;38721;53.098;6.596;2022-11-20T11:04:13;9.98;;;7.57;;
52858;SDS011;38721;53.098;6.596;2022-11-20T11:07:13;9.60;;;7.05;;
52858;SDS011;38721;53.098;6.596;2022-11-20T11:09:43;10.77;;;7.25;;
52858;SDS011;38721;53.098;6.596;2022-11-20T11:12:14;10.63;;;7.35;;
52858;SDS011;38721;53.098;6.596;2022-11-20T11:14:44;12.73;;;8.10;;
52858;SDS011;38721;53.098;6.596;2022-11-20T11:19:58;11.73;;;8.13;;
52858;SDS011;38721;53.098;6.596;2022-11-20T11:22:46;12.98;;;8.15;;
52858;SDS011;38721;53.098;6.596;2022-11-20T11:30:25;9.82;;;7.50;;
52858;SDS011;38721;53.098;6.596;2022-11-20T11:33:11;11.52;;;8.25;;
52858;SDS011;38721;53.098;6.596;2022-11-20T11:35:44;14.55;;;8.77;;
52858;SDS011;38721;53.098;6.596;2022-11-20T11:38:22;10.73;;;7.47;;
52858;SDS011;38721;53.098;6.596;2022-11-20T11:41:02;9.50;;;7.15;;
52858;SDS011;38721;53.098;6.596;2022-11-20T11:43:31;9.75;;;7.85;;
52858;SDS011;38721;53.098;6.596;2022-11-20T11:49:11;9.45;;;7.07;;
52858;SDS011;38721;53.098;6.596;2022-11-20T11:54:30;10.15;;;7.30;;
52858;SDS011;38721;53.098;6.596;2022-11-20T11:57:05;8.15;;;6.15;;
52858;SDS011;38721;53.098;6.596;2022-11-20T12:05:18;8.10;;;5.90;;
52858;SDS011;38721;53.098;6.596;2022-11-20T12:13:18;6.57;;;4.72;;
52858;SDS011;38721;53.098;6.596;2022-11-20T12:16:04;6.78;;;4.95;;
52858;SDS011;38721;53.098;6.596;2022-11-20T12:18:30;6.78;;;4.93;;
52858;SDS011;38721;53.098;6.596;2022-11-20T12:21:10;7.85;;;5.10;;
52858;SDS011;38721;53.098;6.596;2022-11-20T12:24:00;7.30;;;5.13;;
52858;SDS011;38721;53.098;6.596;2022-11-20T12:26:58;7.85;;;5.60;;
52858;SDS011;38721;53.098;6.596;2022-11-20T12:32:49;7.43;;;5.65;;
52858;SDS011;38721;53.098;6.596;2022-11-20T12:41:43;8.30;;;5.88;;
52858;SDS011;38721;53.098;6.596;2022-11-20T12:44:45;13.23;;;8.13;;
52858;SDS011;38721;53.098;6.596;2022-11-20T12:50:23;7.50;;;5.45;;
52858;SDS011;38721;53.098;6.596;2022-11-20T12:52:56;8.70;;;6.28;;
52858;SDS011;38721;53.098;6.596;2022-11-20T13:01:12;8.32;;;6.00;;
52858;SDS011;38721;53.098;6.596;2022-11-20T13:06:50;10.40;;;6.82;;
52858;SDS011;38721;53.098;6.596;2022-11-20T13:09:18;8.93;;;6.32;;
52858;SDS011;38721;53.098;6.596;2022-11-20T13:11:50;10.02;;;7.28;;
52858;SDS011;38721;53.098;6.596;2022-11-20T13:18:14;11.32;;;7.65;;
52858;SDS011;38721;53.098;6.596;2022-11-20T13:20:16;11.45;;;6.78;;
52858;SDS011;38721;53.098;6.596;2022-11-20T13:22:47;9.63;;;6.85;;
52858;SDS011;38721;53.098;6.596;2022-11-20T13:27:49;9.27;;;6.35;;
52858;SDS011;38721;53.098;6.596;2022-11-20T13:30:28;9.95;;;7.00;;
52858;SDS011;38721;53.098;6.596;2022-11-20T13:35:36;9.18;;;6.40;;
52858;SDS011;38721;53.098;6.596;2022-11-20T13:38:10;9.02;;;6.50;;
52858;SDS011;38721;53.098;6.596;2022-11-20T13:40:38;9.55;;;7.07;;
52858;SDS011;38721;53.098;6.596;2022-11-20T13:43:35;9.40;;;6.78;;
52858;SDS011;38721;53.098;6.596;2022-11-20T13:46:05;9.40;;;6.50;;
52858;SDS011;38721;53.098;6.596;2022-11-20T13:48:34;8.27;;;6.30;;
52858;SDS011;38721;53.098;6.596;2022-11-20T13:54:03;8.27;;;6.60;;
52858;SDS011;38721;53.098;6.596;2022-11-20T14:02:02;10.45;;;7.10;;
52858;SDS011;38721;53.098;6.596;2022-11-20T14:04:34;9.73;;;6.57;;
52858;SDS011;38721;53.098;6.596;2022-11-20T14:07:04;11.02;;;7.03;;
52858;SDS011;38721;53.098;6.596;2022-11-20T14:09:34;8.75;;;6.15;;
52858;SDS011;38721;53.098;6.596;2022-11-20T14:12:00;10.77;;;6.93;;
52858;SDS011;38721;53.098;6.596;2022-11-20T14:14:28;10.20;;;6.97;;
52858;SDS011;38721;53.098;6.596;2022-11-20T14:19:55;9.13;;;6.65;;
52858;SDS011;38721;53.098;6.596;2022-11-20T14:22:29;8.75;;;6.55;;
52858;SDS011;38721;53.098;6.596;2022-11-20T14:25:17;9.35;;;7.07;;
52858;SDS011;38721;53.098;6.596;2022-11-20T14:27:55;8.68;;;6.40;;
52858;SDS011;38721;53.098;6.596;2022-11-20T14:30:24;10.82;;;6.63;;
52858;SDS011;38721;53.098;6.596;2022-11-20T14:32:51;8.00;;;5.82;;
52858;SDS011;38721;53.098;6.596;2022-11-20T14:35:31;10.90;;;6.57;;
52858;SDS011;38721;53.098;6.596;2022-11-20T14:38:12;8.60;;;6.07;;
52858;SDS011;38721;53.098;6.596;2022-11-20T14:40:39;7.93;;;5.78;;
52858;SDS011;38721;53.098;6.596;2022-11-20T14:43:23;9.77;;;7.10;;
52858;SDS011;38721;53.098;6.596;2022-11-20T14:45:58;13.23;;;6.93;;
52858;SDS011;38721;53.098;6.596;2022-11-20T14:48:35;10.52;;;6.90;;
52858;SDS011;38721;53.098;6.596;2022-11-20T14:51:16;9.68;;;6.90;;
52858;SDS011;38721;53.098;6.596;2022-11-20T14:54:19;15.98;;;10.00;;
52858;SDS011;38721;53.098;6.596;2022-11-20T14:57:03;19.77;;;11.65;;
52858;SDS011;38721;53.098;6.596;2022-11-20T14:59:30;17.15;;;11.40;;
52858;SDS011;38721;53.098;6.596;2022-11-20T15:02:04;13.90;;;9.70;;
52858;SDS011;38721;53.098;6.596;2022-11-20T15:04:43;11.63;;;8.05;;
52858;SDS011;38721;53.098;6.596;2022-11-20T15:07:39;13.40;;;9.02;;
52858;SDS011;38721;53.098;6.596;2022-11-20T15:10:18;11.98;;;8.57;;
52858;SDS011;38721;53.098;6.596;2022-11-20T15:16:10;11.52;;;8.35;;
52858;SDS011;38721;53.098;6.596;2022-11-20T15:18:16;11.55;;;8.43;;
52858;SDS011;38721;53.098;6.596;2022-11-20T15:20:46;13.05;;;8.48;;
52858;SDS011;38721;53.098;6.596;2022-11-20T15:23:13;12.07;;;8.02;;
52858;SDS011;38721;53.098;6.596;2022-11-20T15:25:46;14.52;;;9.70;;
52858;SDS011;38721;53.098;6.596;2022-11-20T15:28:30;11.90;;;8.23;;
52858;SDS011;38721;53.098;6.596;2022-11-20T15:31:02;14.88;;;8.50;;
52858;SDS011;38721;53.098;6.596;2022-11-20T15:33:29;15.32;;;9.00;;
52858;SDS011;38721;53.098;6.596;2022-11-20T15:35:56;13.15;;;8.93;;
52858;SDS011;38721;53.098;6.596;2022-11-20T15:38:22;14.75;;;10.30;;
52858;SDS011;38721;53.098;6.596;2022-11-20T15:40:51;12.80;;;9.45;;
52858;SDS011;38721;53.098;6.596;2022-11-20T15:43:19;12.73;;;9.27;;
52858;SDS011;38721;53.098;6.596;2022-11-20T15:45:46;17.55;;;12.30;;
52858;SDS011;38721;53.098;6.596;2022-11-20T15:48:43;14.80;;;9.93;;
52858;SDS011;38721;53.098;6.596;2022-11-20T15:53:42;17.58;;;11.52;;
52858;SDS011;38721;53.098;6.596;2022-11-20T15:56:11;14.82;;;9.75;;
52858;SDS011;38721;53.098;6.596;2022-11-20T15:58:38;17.35;;;10.70;;
52858;SDS011;38721;53.098;6.596;2022-11-20T16:01:04;15.48;;;9.82;;
52858;SDS011;38721;53.098;6.596;2022-11-20T16:03:30;12.57;;;9.45;;
52858;SDS011;38721;53.098;6.596;2022-11-20T16:05:59;15.00;;;10.35;;
52858;SDS011;38721;53.098;6.596;2022-11-20T16:08:24;14.85;;;9.68;;
52858;SDS011;38721;53.098;6.596;2022-11-20T16:10:50;14.45;;;9.48;;
52858;SDS011;38721;53.098;6.596;2022-11-20T16:13:17;14.73;;;9.73;;
52858;SDS011;38721;53.098;6.596;2022-11-20T16:16:12;16.38;;;9.90;;
52858;SDS011;38721;53.098;6.596;2022-11-20T16:18:53;14.90;;;9.80;;
52858;SDS011;38721;53.098;6.596;2022-11-20T16:21:19;17.25;;;10.65;;
52858;SDS011;38721;53.098;6.596;2022-11-20T16:23:45;15.40;;;10.27;;
52858;SDS011;38721;53.098;6.596;2022-11-20T16:26:15;15.68;;;9.95;;
52858;SDS011;38721;53.098;6.596;2022-11-20T16:28:42;15.27;;;9.80;;
52858;SDS011;38721;53.098;6.596;2022-11-20T16:31:17;15.43;;;9.60;;
52858;SDS011;38721;53.098;6.596;2022-11-20T16:33:48;15.18;;;9.88;;
52858;SDS011;38721;53.098;6.596;2022-11-20T16:36:15;15.95;;;9.27;;
52858;SDS011;38721;53.098;6.596;2022-11-20T16:38:44;14.85;;;9.65;;
52858;SDS011;38721;53.098;6.596;2022-11-20T16:41:10;16.80;;;10.65;;
52858;SDS011;38721;53.098;6.596;2022-11-20T16:43:43;15.05;;;10.75;;